首页
METAR-TAF:

METAR-TAF

机场 :

雅典, 希腊

雅典埃莱夫塞里奥斯·韦尼泽洛斯国际机场

纬度: 37-56N, 经度: 023-56E, 海拔: 94米

当前天气观测

该预报发布于38分钟前的13:50 UTC
风速18节,风向北转西北
温度 9°C
湿度 53%
气压 1005 hPa
能见度10公里或以上
少量云层高于3500英尺
多云层高于5000英尺

METAR: LGAV 221350Z 33018KT 9999 FEW035 BKN050 09/00 Q1005 NOSIG

时间: 16:28 (14:28 UTC)

预报

该预报发布于3小时和28分钟前的11:00 UTC
预报有效从22日的 12点(UTC)到 23日的 12点(UTC)
风速20节,风向,有时为33节阵风
能见度10公里或以上
散云层高于1800英尺
多云层高于3500英尺
成为
从 22日的 18点(UTC)到 22日的 20点(UTC)
风速25节,风向,有时为35节阵风

TAF: LGAV 221100Z 2212/2312 35020G33KT 9999 SCT018 BKN035 BECMG 2218/2220 35025G35KT

超过4000个机场的气象观测和天气预报(METAR&TAF报告)。

可查询的气象台以黄色和红色小点在地图上表示。

将鼠标移到小点上方,可查看气象台名称。

然后点击查看天气观测和预报。

如需切换地图:点击带黑十字的绿色按钮放大地图;点击带横线的绿色按钮缩小地图;或者点击绿色箭头查看邻近地区的地图。


METAR-TAF: